VGEG/CGP METAR and TAF weather

Enter ICAO airport designator
Station Type Date Time Source
VGEG METAR 2023/02/05 14:00 UTC NOAA

VGEG 051400Z 30008KT 3200 HZ NSC 23/12 Q1011 NOSIG


Station Type Date Time Source
VGEG Decoded METAR 2023/02/05 14:00 UTC NOAA

Chittagong Patenga , Bangladesh (VGEG) 22-16N 091-49E 6M
Feb 05, 2023 - 09:00 AM EST / 2023.02.05 1400 UTC
Wind: from the WNW (300 degrees) at 9 MPH (8 KT):0
Visibility: 1 mile(s):0
Weather: haze
Temperature: 73 F (23 C)
Dew Point: 53 F (12 C)
Relative Humidity: 49%
Pressure (altimeter): 29.85 in. Hg (1011 hPa)
ob: VGEG 051400Z 30008KT 3200 HZ NSC 23/12 Q1011 NOSIG
cycle: 14

Station Type Date Time Source
VGEG TAF 2023/02/05 12:42 UTC NOAA

TAF TAF VGEG 051100Z 0512/0618 30010KT 3500 HZ NSC
TEMPO 0600/0603 01005KT 1800 BR NSC
BECMG 0608/0610 33010KT 3100 HZ NSC
BECMG 0615/0617 34005KT 3100 HZ NSC

Example: see airport list